sensor_id;sensor_type;location;lat;lon;timestamp;P1;durP1;ratioP1;P2;durP2;ratioP2
15256;SDS011;7731;50.720;6.912;2022-07-04T00:01:16;2.38;;;1.98;;
15256;SDS011;7731;50.720;6.912;2022-07-04T00:03:47;3.97;;;1.80;;
15256;SDS011;7731;50.720;6.912;2022-07-04T00:06:20;3.45;;;2.00;;
15256;SDS011;7731;50.720;6.912;2022-07-04T00:08:50;2.95;;;2.10;;
15256;SDS011;7731;50.720;6.912;2022-07-04T00:11:20;2.58;;;1.63;;
15256;SDS011;7731;50.720;6.912;2022-07-04T00:13:51;4.43;;;1.90;;
15256;SDS011;7731;50.720;6.912;2022-07-04T00:16:21;2.83;;;2.20;;
15256;SDS011;7731;50.720;6.912;2022-07-04T00:18:51;4.20;;;2.08;;
15256;SDS011;7731;50.720;6.912;2022-07-04T00:21:24;2.42;;;1.85;;
15256;SDS011;7731;50.720;6.912;2022-07-04T00:23:55;2.20;;;1.75;;
15256;SDS011;7731;50.720;6.912;2022-07-04T00:26:25;4.85;;;1.85;;
15256;SDS011;7731;50.720;6.912;2022-07-04T00:28:55;2.17;;;1.88;;
15256;SDS011;7731;50.720;6.912;2022-07-04T00:31:26;2.00;;;1.80;;
15256;SDS011;7731;50.720;6.912;2022-07-04T00:33:56;4.00;;;1.88;;
15256;SDS011;7731;50.720;6.912;2022-07-04T00:36:29;2.63;;;1.55;;
15256;SDS011;7731;50.720;6.912;2022-07-04T00:39:00;3.05;;;2.00;;
15256;SDS011;7731;50.720;6.912;2022-07-04T00:41:30;2.72;;;1.73;;
15256;SDS011;7731;50.720;6.912;2022-07-04T00:44:01;4.70;;;2.10;;
15256;SDS011;7731;50.720;6.912;2022-07-04T00:46:39;3.72;;;1.80;;
15256;SDS011;7731;50.720;6.912;2022-07-04T00:49:11;3.58;;;1.85;;
15256;SDS011;7731;50.720;6.912;2022-07-04T00:51:46;3.65;;;2.15;;
15256;SDS011;7731;50.720;6.912;2022-07-04T00:54:17;2.55;;;2.10;;
15256;SDS011;7731;50.720;6.912;2022-07-04T00:56:48;4.07;;;1.85;;
15256;SDS011;7731;50.720;6.912;2022-07-04T00:59:19;2.30;;;1.70;;
15256;SDS011;7731;50.720;6.912;2022-07-04T01:01:49;3.47;;;1.90;;
15256;SDS011;7731;50.720;6.912;2022-07-04T01:04:20;2.60;;;1.83;;
15256;SDS011;7731;50.720;6.912;2022-07-04T01:06:54;2.97;;;2.17;;
15256;SDS011;7731;50.720;6.912;2022-07-04T01:09:24;3.88;;;2.10;;
15256;SDS011;7731;50.720;6.912;2022-07-04T01:11:55;2.40;;;2.20;;
15256;SDS011;7731;50.720;6.912;2022-07-04T01:14:25;5.70;;;2.50;;
15256;SDS011;7731;50.720;6.912;2022-07-04T01:16:55;5.85;;;2.15;;
15256;SDS011;7731;50.720;6.912;2022-07-04T01:19:26;3.03;;;2.35;;
15256;SDS011;7731;50.720;6.912;2022-07-04T01:21:59;2.85;;;2.25;;
15256;SDS011;7731;50.720;6.912;2022-07-04T01:24:35;3.83;;;2.20;;
15256;SDS011;7731;50.720;6.912;2022-07-04T01:27:05;4.22;;;1.98;;
15256;SDS011;7731;50.720;6.912;2022-07-04T01:29:36;4.40;;;2.33;;
15256;SDS011;7731;50.720;6.912;2022-07-04T01:32:06;3.55;;;2.13;;
15256;SDS011;7731;50.720;6.912;2022-07-04T01:34:38;3.70;;;2.38;;
15256;SDS011;7731;50.720;6.912;2022-07-04T01:37:12;2.92;;;2.28;;
15256;SDS011;7731;50.720;6.912;2022-07-04T01:39:42;2.40;;;2.20;;
15256;SDS011;7731;50.720;6.912;2022-07-04T01:42:13;4.53;;;2.50;;
15256;SDS011;7731;50.720;6.912;2022-07-04T01:44:43;3.08;;;2.40;;
15256;SDS011;7731;50.720;6.912;2022-07-04T01:47:14;4.97;;;2.33;;
15256;SDS011;7731;50.720;6.912;2022-07-04T01:49:45;5.28;;;2.72;;
15256;SDS011;7731;50.720;6.912;2022-07-04T01:52:18;5.68;;;2.40;;
15256;SDS011;7731;50.720;6.912;2022-07-04T01:54:48;3.17;;;2.40;;
15256;SDS011;7731;50.720;6.912;2022-07-04T01:57:19;4.85;;;2.70;;
15256;SDS011;7731;50.720;6.912;2022-07-04T01:59:49;4.72;;;2.50;;
15256;SDS011;7731;50.720;6.912;2022-07-04T02:02:32;5.60;;;2.50;;
15256;SDS011;7731;50.720;6.912;2022-07-04T02:05:02;3.10;;;2.20;;
15256;SDS011;7731;50.720;6.912;2022-07-04T02:07:37;5.63;;;2.65;;
15256;SDS011;7731;50.720;6.912;2022-07-04T02:10:07;5.00;;;2.65;;
15256;SDS011;7731;50.720;6.912;2022-07-04T02:12:38;4.55;;;2.75;;
15256;SDS011;7731;50.720;6.912;2022-07-04T02:15:22;4.68;;;2.65;;
15256;SDS011;7731;50.720;6.912;2022-07-04T02:17:52;3.60;;;2.47;;
15256;SDS011;7731;50.720;6.912;2022-07-04T02:20:23;4.32;;;2.70;;
15256;SDS011;7731;50.720;6.912;2022-07-04T02:22:57;3.30;;;2.53;;
15256;SDS011;7731;50.720;6.912;2022-07-04T02:25:28;4.75;;;2.80;;
15256;SDS011;7731;50.720;6.912;2022-07-04T02:27:58;5.65;;;3.05;;
15256;SDS011;7731;50.720;6.912;2022-07-04T02:30:29;4.53;;;2.70;;
15256;SDS011;7731;50.720;6.912;2022-07-04T02:32:59;4.57;;;2.50;;
15256;SDS011;7731;50.720;6.912;2022-07-04T02:35:30;3.88;;;2.63;;
15256;SDS011;7731;50.720;6.912;2022-07-04T02:38:03;4.05;;;2.72;;
15256;SDS011;7731;50.720;6.912;2022-07-04T02:40:33;5.97;;;2.70;;
15256;SDS011;7731;50.720;6.912;2022-07-04T02:43:03;3.13;;;2.20;;
15256;SDS011;7731;50.720;6.912;2022-07-04T02:45:34;2.95;;;2.50;;
15256;SDS011;7731;50.720;6.912;2022-07-04T02:48:04;3.22;;;2.55;;
15256;SDS011;7731;50.720;6.912;2022-07-04T02:50:35;3.67;;;2.40;;
15256;SDS011;7731;50.720;6.912;2022-07-04T02:53:08;4.07;;;3.00;;
15256;SDS011;7731;50.720;6.912;2022-07-04T02:55:38;2.72;;;2.40;;
15256;SDS011;7731;50.720;6.912;2022-07-04T02:58:09;3.65;;;2.67;;
15256;SDS011;7731;50.720;6.912;2022-07-04T03:00:39;4.25;;;2.50;;
15256;SDS011;7731;50.720;6.912;2022-07-04T03:03:10;3.80;;;2.97;;
15256;SDS011;7731;50.720;6.912;2022-07-04T03:05:40;3.67;;;2.92;;
15256;SDS011;7731;50.720;6.912;2022-07-04T03:08:37;2.80;;;2.60;;
15256;SDS011;7731;50.720;6.912;2022-07-04T03:11:08;6.43;;;2.80;;
15256;SDS011;7731;50.720;6.912;2022-07-04T03:13:39;3.35;;;2.03;;
15256;SDS011;7731;50.720;6.912;2022-07-04T03:16:10;5.43;;;2.80;;
15256;SDS011;7731;50.720;6.912;2022-07-04T03:18:41;5.45;;;2.50;;
15256;SDS011;7731;50.720;6.912;2022-07-04T03:21:11;3.13;;;2.70;;
15256;SDS011;7731;50.720;6.912;2022-07-04T03:23:44;2.92;;;2.65;;
15256;SDS011;7731;50.720;6.912;2022-07-04T03:26:24;2.97;;;2.40;;
15256;SDS011;7731;50.720;6.912;2022-07-04T03:28:56;2.63;;;2.23;;
15256;SDS011;7731;50.720;6.912;2022-07-04T03:31:27;3.70;;;2.42;;
15256;SDS011;7731;50.720;6.912;2022-07-04T03:33:58;3.47;;;2.43;;
15256;SDS011;7731;50.720;6.912;2022-07-04T03:36:29;2.63;;;2.13;;
15256;SDS011;7731;50.720;6.912;2022-07-04T03:39:02;2.67;;;2.47;;
15256;SDS011;7731;50.720;6.912;2022-07-04T03:41:33;4.43;;;2.72;;
15256;SDS011;7731;50.720;6.912;2022-07-04T03:44:03;2.90;;;2.33;;
15256;SDS011;7731;50.720;6.912;2022-07-04T03:46:34;3.07;;;2.60;;
15256;SDS011;7731;50.720;6.912;2022-07-04T03:49:05;3.67;;;2.60;;
15256;SDS011;7731;50.720;6.912;2022-07-04T03:51:36;4.10;;;3.00;;
15256;SDS011;7731;50.720;6.912;2022-07-04T03:54:09;4.07;;;2.37;;
15256;SDS011;7731;50.720;6.912;2022-07-04T03:56:43;3.22;;;2.30;;
15256;SDS011;7731;50.720;6.912;2022-07-04T03:59:13;3.88;;;2.10;;
15256;SDS011;7731;50.720;6.912;2022-07-04T04:01:44;4.88;;;2.72;;
15256;SDS011;7731;50.720;6.912;2022-07-04T04:04:15;3.58;;;2.50;;
15256;SDS011;7731;50.720;6.912;2022-07-04T04:06:58;4.47;;;2.33;;
15256;SDS011;7731;50.720;6.912;2022-07-04T04:09:30;4.70;;;2.40;;
15256;SDS011;7731;50.720;6.912;2022-07-04T04:12:01;3.93;;;2.37;;
15256;SDS011;7731;50.720;6.912;2022-07-04T04:14:31;4.53;;;2.80;;
15256;SDS011;7731;50.720;6.912;2022-07-04T04:17:02;3.28;;;2.63;;
15256;SDS011;7731;50.720;6.912;2022-07-04T04:19:33;3.63;;;2.30;;
15256;SDS011;7731;50.720;6.912;2022-07-04T04:22:03;3.10;;;2.63;;
15256;SDS011;7731;50.720;6.912;2022-07-04T04:24:36;2.80;;;2.40;;
15256;SDS011;7731;50.720;6.912;2022-07-04T04:27:07;3.33;;;2.53;;
15256;SDS011;7731;50.720;6.912;2022-07-04T04:29:38;3.20;;;2.53;;
15256;SDS011;7731;50.720;6.912;2022-07-04T04:32:08;3.97;;;2.72;;
15256;SDS011;7731;50.720;6.912;2022-07-04T04:34:38;3.53;;;2.08;;
15256;SDS011;7731;50.720;6.912;2022-07-04T04:37:09;2.22;;;1.83;;
15256;SDS011;7731;50.720;6.912;2022-07-04T04:39:42;4.40;;;2.28;;
15256;SDS011;7731;50.720;6.912;2022-07-04T04:42:13;3.85;;;2.42;;
15256;SDS011;7731;50.720;6.912;2022-07-04T04:44:43;3.78;;;2.47;;
15256;SDS011;7731;50.720;6.912;2022-07-04T04:47:13;4.57;;;2.15;;
15256;SDS011;7731;50.720;6.912;2022-07-04T04:49:44;2.72;;;2.10;;
15256;SDS011;7731;50.720;6.912;2022-07-04T04:52:14;3.65;;;2.30;;
15256;SDS011;7731;50.720;6.912;2022-07-04T04:55:03;3.00;;;2.40;;
15256;SDS011;7731;50.720;6.912;2022-07-04T04:57:34;2.95;;;2.40;;
15256;SDS011;7731;50.720;6.912;2022-07-04T05:00:05;3.17;;;2.50;;
15256;SDS011;7731;50.720;6.912;2022-07-04T05:02:37;3.78;;;2.40;;
15256;SDS011;7731;50.720;6.912;2022-07-04T05:05:07;3.83;;;2.17;;
15256;SDS011;7731;50.720;6.912;2022-07-04T05:07:38;5.72;;;2.60;;
15256;SDS011;7731;50.720;6.912;2022-07-04T05:10:11;3.72;;;2.53;;
15256;SDS011;7731;50.720;6.912;2022-07-04T05:12:42;3.97;;;2.03;;
15256;SDS011;7731;50.720;6.912;2022-07-04T05:15:12;3.60;;;2.38;;
15256;SDS011;7731;50.720;6.912;2022-07-04T05:17:43;5.72;;;2.50;;
15256;SDS011;7731;50.720;6.912;2022-07-04T05:20:13;3.25;;;1.70;;
15256;SDS011;7731;50.720;6.912;2022-07-04T05:22:44;3.88;;;2.00;;
15256;SDS011;7731;50.720;6.912;2022-07-04T05:25:17;5.45;;;1.92;;
15256;SDS011;7731;50.720;6.912;2022-07-04T05:27:47;3.33;;;1.33;;
15256;SDS011;7731;50.720;6.912;2022-07-04T05:30:17;4.75;;;1.85;;
15256;SDS011;7731;50.720;6.912;2022-07-04T05:32:48;3.72;;;1.45;;
15256;SDS011;7731;50.720;6.912;2022-07-04T05:35:18;2.28;;;1.33;;
15256;SDS011;7731;50.720;6.912;2022-07-04T05:37:48;2.03;;;1.38;;
15256;SDS011;7731;50.720;6.912;2022-07-04T05:40:21;2.90;;;1.35;;
15256;SDS011;7731;50.720;6.912;2022-07-04T05:42:52;1.58;;;1.38;;
15256;SDS011;7731;50.720;6.912;2022-07-04T05:45:23;3.78;;;1.48;;
15256;SDS011;7731;50.720;6.912;2022-07-04T05:47:53;3.45;;;1.50;;
15256;SDS011;7731;50.720;6.912;2022-07-04T05:50:24;2.75;;;1.55;;
15256;SDS011;7731;50.720;6.912;2022-07-04T05:52:58;4.10;;;1.38;;
15256;SDS011;7731;50.720;6.912;2022-07-04T05:55:31;2.75;;;1.80;;
15256;SDS011;7731;50.720;6.912;2022-07-04T05:58:02;4.35;;;1.70;;
15256;SDS011;7731;50.720;6.912;2022-07-04T06:00:32;4.00;;;1.70;;
15256;SDS011;7731;50.720;6.912;2022-07-04T06:03:03;4.15;;;1.65;;
15256;SDS011;7731;50.720;6.912;2022-07-04T06:05:33;6.47;;;2.28;;
15256;SDS011;7731;50.720;6.912;2022-07-04T06:08:03;4.80;;;1.70;;
15256;SDS011;7731;50.720;6.912;2022-07-04T06:10:37;3.58;;;1.55;;
15256;SDS011;7731;50.720;6.912;2022-07-04T06:13:07;6.63;;;1.67;;
15256;SDS011;7731;50.720;6.912;2022-07-04T06:15:37;7.38;;;1.77;;
15256;SDS011;7731;50.720;6.912;2022-07-04T06:18:08;6.75;;;1.55;;
15256;SDS011;7731;50.720;6.912;2022-07-04T06:20:39;2.75;;;1.30;;
15256;SDS011;7731;50.720;6.912;2022-07-04T06:23:09;3.88;;;1.70;;
15256;SDS011;7731;50.720;6.912;2022-07-04T06:25:42;4.20;;;1.42;;
15256;SDS011;7731;50.720;6.912;2022-07-04T06:28:13;2.97;;;1.55;;
15256;SDS011;7731;50.720;6.912;2022-07-04T06:31:03;3.88;;;1.30;;
15256;SDS011;7731;50.720;6.912;2022-07-04T06:33:34;4.63;;;1.35;;
15256;SDS011;7731;50.720;6.912;2022-07-04T06:36:25;4.85;;;1.30;;
15256;SDS011;7731;50.720;6.912;2022-07-04T06:38:53;5.07;;;1.48;;
15256;SDS011;7731;50.720;6.912;2022-07-04T06:41:26;5.88;;;1.92;;
15256;SDS011;7731;50.720;6.912;2022-07-04T06:43:56;2.17;;;1.20;;
15256;SDS011;7731;50.720;6.912;2022-07-04T06:46:27;2.85;;;1.52;;
15256;SDS011;7731;50.720;6.912;2022-07-04T06:48:57;4.32;;;1.33;;
15256;SDS011;7731;50.720;6.912;2022-07-04T06:51:51;3.83;;;1.30;;
15256;SDS011;7731;50.720;6.912;2022-07-04T06:54:22;5.43;;;1.30;;
15256;SDS011;7731;50.720;6.912;2022-07-04T06:56:55;3.28;;;1.20;;
15256;SDS011;7731;50.720;6.912;2022-07-04T06:59:45;3.17;;;1.10;;
15256;SDS011;7731;50.720;6.912;2022-07-04T07:02:16;3.22;;;1.20;;
15256;SDS011;7731;50.720;6.912;2022-07-04T07:04:46;2.28;;;0.98;;
15256;SDS011;7731;50.720;6.912;2022-07-04T07:07:17;1.50;;;0.90;;
15256;SDS011;7731;50.720;6.912;2022-07-04T07:09:47;2.70;;;1.10;;
15256;SDS011;7731;50.720;6.912;2022-07-04T07:12:20;1.65;;;0.95;;
15256;SDS011;7731;50.720;6.912;2022-07-04T07:14:51;3.80;;;1.30;;
15256;SDS011;7731;50.720;6.912;2022-07-04T07:17:21;3.42;;;0.95;;
15256;SDS011;7731;50.720;6.912;2022-07-04T07:19:52;4.95;;;1.25;;
15256;SDS011;7731;50.720;6.912;2022-07-04T07:22:23;2.97;;;0.93;;
15256;SDS011;7731;50.720;6.912;2022-07-04T07:24:53;1.85;;;0.80;;
15256;SDS011;7731;50.720;6.912;2022-07-04T07:27:27;2.95;;;1.00;;
15256;SDS011;7731;50.720;6.912;2022-07-04T07:29:57;3.00;;;1.20;;
15256;SDS011;7731;50.720;6.912;2022-07-04T07:32:28;1.70;;;1.00;;
15256;SDS011;7731;50.720;6.912;2022-07-04T07:34:58;3.03;;;1.02;;
15256;SDS011;7731;50.720;6.912;2022-07-04T07:37:29;2.03;;;1.00;;
15256;SDS011;7731;50.720;6.912;2022-07-04T07:40:00;3.13;;;1.20;;
15256;SDS011;7731;50.720;6.912;2022-07-04T07:42:33;4.75;;;1.00;;
15256;SDS011;7731;50.720;6.912;2022-07-04T07:45:04;2.80;;;0.90;;
15256;SDS011;7731;50.720;6.912;2022-07-04T07:47:36;2.40;;;1.10;;
15256;SDS011;7731;50.720;6.912;2022-07-04T07:50:07;3.22;;;1.10;;
15256;SDS011;7731;50.720;6.912;2022-07-04T07:52:37;2.35;;;1.20;;
15256;SDS011;7731;50.720;6.912;2022-07-04T07:55:08;2.10;;;0.80;;
15256;SDS011;7731;50.720;6.912;2022-07-04T07:57:41;2.60;;;0.88;;
15256;SDS011;7731;50.720;6.912;2022-07-04T08:00:14;3.00;;;0.82;;
15256;SDS011;7731;50.720;6.912;2022-07-04T08:03:05;2.25;;;0.70;;
15256;SDS011;7731;50.720;6.912;2022-07-04T08:05:48;2.53;;;0.88;;
15256;SDS011;7731;50.720;6.912;2022-07-04T08:08:27;1.55;;;0.75;;
15256;SDS011;7731;50.720;6.912;2022-07-04T08:10:57;3.33;;;0.90;;
15256;SDS011;7731;50.720;6.912;2022-07-04T08:13:31;1.88;;;0.80;;
15256;SDS011;7731;50.720;6.912;2022-07-04T08:16:02;1.52;;;0.80;;
15256;SDS011;7731;50.720;6.912;2022-07-04T08:18:32;2.97;;;0.82;;
15256;SDS011;7731;50.720;6.912;2022-07-04T08:21:04;3.13;;;0.85;;
15256;SDS011;7731;50.720;6.912;2022-07-04T08:23:38;2.28;;;0.80;;
15256;SDS011;7731;50.720;6.912;2022-07-04T08:26:29;1.48;;;0.80;;
15256;SDS011;7731;50.720;6.912;2022-07-04T08:29:02;3.42;;;0.80;;
15256;SDS011;7731;50.720;6.912;2022-07-04T08:31:32;2.33;;;1.05;;
15256;SDS011;7731;50.720;6.912;2022-07-04T08:34:17;3.17;;;0.70;;
15256;SDS011;7731;50.720;6.912;2022-07-04T08:36:47;0.90;;;0.80;;
15256;SDS011;7731;50.720;6.912;2022-07-04T08:39:18;2.08;;;0.60;;
15256;SDS011;7731;50.720;6.912;2022-07-04T08:41:48;3.00;;;0.77;;
15256;SDS011;7731;50.720;6.912;2022-07-04T08:44:27;2.53;;;0.88;;
15256;SDS011;7731;50.720;6.912;2022-07-04T08:46:58;2.45;;;0.80;;
15256;SDS011;7731;50.720;6.912;2022-07-04T08:49:29;1.95;;;0.70;;
15256;SDS011;7731;50.720;6.912;2022-07-04T08:52:03;2.45;;;0.93;;
15256;SDS011;7731;50.720;6.912;2022-07-04T08:54:38;1.92;;;0.85;;
15256;SDS011;7731;50.720;6.912;2022-07-04T08:57:21;1.80;;;0.60;;
15256;SDS011;7731;50.720;6.912;2022-07-04T09:00:07;1.17;;;0.68;;
15256;SDS011;7731;50.720;6.912;2022-07-04T09:02:38;1.98;;;0.60;;
15256;SDS011;7731;50.720;6.912;2022-07-04T09:05:09;3.50;;;0.90;;
15256;SDS011;7731;50.720;6.912;2022-07-04T09:07:39;0.90;;;0.70;;
15256;SDS011;7731;50.720;6.912;2022-07-04T09:10:10;1.52;;;0.70;;
15256;SDS011;7731;50.720;6.912;2022-07-04T09:12:41;1.42;;;0.77;;
15256;SDS011;7731;50.720;6.912;2022-07-04T09:15:34;1.20;;;0.75;;
15256;SDS011;7731;50.720;6.912;2022-07-04T09:18:04;1.30;;;0.70;;
15256;SDS011;7731;50.720;6.912;2022-07-04T09:20:34;2.65;;;0.85;;
15256;SDS011;7731;50.720;6.912;2022-07-04T09:23:05;1.65;;;0.80;;
15256;SDS011;7731;50.720;6.912;2022-07-04T09:25:47;3.10;;;0.70;;
15256;SDS011;7731;50.720;6.912;2022-07-04T09:28:34;1.23;;;0.70;;
15256;SDS011;7731;50.720;6.912;2022-07-04T09:31:21;3.40;;;1.10;;
15256;SDS011;7731;50.720;6.912;2022-07-04T09:33:53;1.93;;;0.90;;
15256;SDS011;7731;50.720;6.912;2022-07-04T09:36:26;1.38;;;0.70;;
15256;SDS011;7731;50.720;6.912;2022-07-04T09:39:05;1.58;;;0.80;;
15256;SDS011;7731;50.720;6.912;2022-07-04T09:41:51;3.33;;;1.17;;
15256;SDS011;7731;50.720;6.912;2022-07-04T09:44:25;2.88;;;1.17;;
15256;SDS011;7731;50.720;6.912;2022-07-04T09:47:00;1.80;;;1.00;;
15256;SDS011;7731;50.720;6.912;2022-07-04T09:50:00;2.55;;;0.90;;
15256;SDS011;7731;50.720;6.912;2022-07-04T09:52:44;2.05;;;1.00;;
15256;SDS011;7731;50.720;6.912;2022-07-04T09:55:21;2.20;;;0.90;;
15256;SDS011;7731;50.720;6.912;2022-07-04T09:57:56;1.90;;;1.00;;
15256;SDS011;7731;50.720;6.912;2022-07-04T10:00:29;1.90;;;0.90;;
15256;SDS011;7731;50.720;6.912;2022-07-04T10:06:01;1.83;;;0.98;;
15256;SDS011;7731;50.720;6.912;2022-07-04T10:08:35;1.92;;;0.95;;
15256;SDS011;7731;50.720;6.912;2022-07-04T10:11:07;2.25;;;1.13;;
15256;SDS011;7731;50.720;6.912;2022-07-04T10:13:44;1.95;;;1.10;;
15256;SDS011;7731;50.720;6.912;2022-07-04T10:16:16;3.00;;;1.02;;
15256;SDS011;7731;50.720;6.912;2022-07-04T10:18:50;2.47;;;1.05;;
15256;SDS011;7731;50.720;6.912;2022-07-04T10:21:23;2.90;;;1.45;;
15256;SDS011;7731;50.720;6.912;2022-07-04T10:23:53;2.42;;;1.10;;
15256;SDS011;7731;50.720;6.912;2022-07-04T10:26:24;4.75;;;1.20;;
15256;SDS011;7731;50.720;6.912;2022-07-04T10:28:57;1.42;;;1.08;;
15256;SDS011;7731;50.720;6.912;2022-07-04T10:31:28;2.00;;;1.13;;
15256;SDS011;7731;50.720;6.912;2022-07-04T10:34:03;2.78;;;1.23;;
15256;SDS011;7731;50.720;6.912;2022-07-04T10:36:34;4.20;;;1.20;;
15256;SDS011;7731;50.720;6.912;2022-07-04T10:39:04;1.63;;;1.10;;
15256;SDS011;7731;50.720;6.912;2022-07-04T10:41:34;2.80;;;1.20;;
15256;SDS011;7731;50.720;6.912;2022-07-04T10:44:26;2.05;;;1.20;;
15256;SDS011;7731;50.720;6.912;2022-07-04T10:47:04;3.47;;;1.30;;
15256;SDS011;7731;50.720;6.912;2022-07-04T10:49:37;1.98;;;1.10;;
15256;SDS011;7731;50.720;6.912;2022-07-04T10:52:12;2.28;;;1.00;;
15256;SDS011;7731;50.720;6.912;2022-07-04T10:54:43;1.63;;;1.00;;
15256;SDS011;7731;50.720;6.912;2022-07-04T10:57:15;1.77;;;1.10;;
15256;SDS011;7731;50.720;6.912;2022-07-04T11:00:01;2.75;;;1.10;;
15256;SDS011;7731;50.720;6.912;2022-07-04T11:02:36;2.67;;;0.85;;
15256;SDS011;7731;50.720;6.912;2022-07-04T11:05:10;4.60;;;1.20;;
15256;SDS011;7731;50.720;6.912;2022-07-04T11:10:37;1.70;;;0.80;;
15256;SDS011;7731;50.720;6.912;2022-07-04T11:13:17;1.92;;;0.88;;
15256;SDS011;7731;50.720;6.912;2022-07-04T11:16:01;2.47;;;0.88;;
15256;SDS011;7731;50.720;6.912;2022-07-04T11:18:41;1.98;;;1.02;;
15256;SDS011;7731;50.720;6.912;2022-07-04T11:21:19;3.90;;;1.25;;
15256;SDS011;7731;50.720;6.912;2022-07-04T11:23:52;3.17;;;1.10;;
15256;SDS011;7731;50.720;6.912;2022-07-04T11:26:24;2.65;;;1.10;;
15256;SDS011;7731;50.720;6.912;2022-07-04T11:28:55;3.08;;;1.23;;
15256;SDS011;7731;50.720;6.912;2022-07-04T11:31:35;2.10;;;1.00;;
15256;SDS011;7731;50.720;6.912;2022-07-04T11:34:07;3.00;;;1.30;;
15256;SDS011;7731;50.720;6.912;2022-07-04T11:36:59;2.60;;;1.02;;
15256;SDS011;7731;50.720;6.912;2022-07-04T11:39:32;3.55;;;1.33;;
15256;SDS011;7731;50.720;6.912;2022-07-04T11:42:03;1.73;;;1.00;;
15256;SDS011;7731;50.720;6.912;2022-07-04T11:44:46;4.30;;;1.20;;
15256;SDS011;7731;50.720;6.912;2022-07-04T11:47:32;2.30;;;0.90;;
15256;SDS011;7731;50.720;6.912;2022-07-04T11:50:06;4.53;;;1.08;;
15256;SDS011;7731;50.720;6.912;2022-07-04T11:52:43;4.20;;;1.00;;
15256;SDS011;7731;50.720;6.912;2022-07-04T11:55:37;3.63;;;0.85;;
15256;SDS011;7731;50.720;6.912;2022-07-04T11:58:07;2.78;;;1.17;;
15256;SDS011;7731;50.720;6.912;2022-07-04T12:00:40;3.20;;;1.08;;
15256;SDS011;7731;50.720;6.912;2022-07-04T12:03:10;3.40;;;0.80;;
15256;SDS011;7731;50.720;6.912;2022-07-04T12:05:40;2.63;;;1.05;;
15256;SDS011;7731;50.720;6.912;2022-07-04T12:08:15;1.48;;;0.73;;
15256;SDS011;7731;50.720;6.912;2022-07-04T12:10:51;2.90;;;1.10;;
15256;SDS011;7731;50.720;6.912;2022-07-04T12:13:21;2.58;;;0.90;;
15256;SDS011;7731;50.720;6.912;2022-07-04T12:15:52;1.98;;;0.93;;
15256;SDS011;7731;50.720;6.912;2022-07-04T12:18:24;2.70;;;1.00;;
15256;SDS011;7731;50.720;6.912;2022-07-04T12:21:10;2.15;;;1.15;;
15256;SDS011;7731;50.720;6.912;2022-07-04T12:23:52;2.55;;;0.93;;
15256;SDS011;7731;50.720;6.912;2022-07-04T12:26:32;2.47;;;0.90;;
15256;SDS011;7731;50.720;6.912;2022-07-04T12:29:02;3.85;;;1.08;;
15256;SDS011;7731;50.720;6.912;2022-07-04T12:31:38;2.45;;;1.05;;
15256;SDS011;7731;50.720;6.912;2022-07-04T12:34:13;2.00;;;0.98;;
15256;SDS011;7731;50.720;6.912;2022-07-04T12:36:47;1.33;;;0.90;;
15256;SDS011;7731;50.720;6.912;2022-07-04T12:39:32;3.97;;;1.10;;
15256;SDS011;7731;50.720;6.912;2022-07-04T12:42:05;3.70;;;1.05;;
15256;SDS011;7731;50.720;6.912;2022-07-04T12:44:41;3.10;;;0.93;;
15256;SDS011;7731;50.720;6.912;2022-07-04T12:47:16;1.88;;;1.15;;
15256;SDS011;7731;50.720;6.912;2022-07-04T12:50:06;2.53;;;1.23;;
15256;SDS011;7731;50.720;6.912;2022-07-04T12:52:37;2.50;;;1.00;;
15256;SDS011;7731;50.720;6.912;2022-07-04T12:55:12;3.20;;;1.38;;
15256;SDS011;7731;50.720;6.912;2022-07-04T12:57:44;3.70;;;1.30;;
15256;SDS011;7731;50.720;6.912;2022-07-04T13:00:14;58.63;;;6.05;;
15256;SDS011;7731;50.720;6.912;2022-07-04T13:03:01;2.25;;;1.33;;
15256;SDS011;7731;50.720;6.912;2022-07-04T13:05:33;2.80;;;0.95;;
15256;SDS011;7731;50.720;6.912;2022-07-04T13:08:05;3.17;;;1.10;;
15256;SDS011;7731;50.720;6.912;2022-07-04T13:10:38;1.63;;;1.10;;
15256;SDS011;7731;50.720;6.912;2022-07-04T13:13:09;1.42;;;0.85;;
15256;SDS011;7731;50.720;6.912;2022-07-04T13:15:39;2.55;;;1.00;;
15256;SDS011;7731;50.720;6.912;2022-07-04T13:18:09;4.00;;;1.10;;
15256;SDS011;7731;50.720;6.912;2022-07-04T13:20:39;3.33;;;0.95;;
15256;SDS011;7731;50.720;6.912;2022-07-04T13:23:10;3.53;;;1.50;;
15256;SDS011;7731;50.720;6.912;2022-07-04T13:25:48;5.15;;;1.25;;
15256;SDS011;7731;50.720;6.912;2022-07-04T13:28:19;2.75;;;1.05;;
15256;SDS011;7731;50.720;6.912;2022-07-04T13:30:49;4.10;;;0.98;;
15256;SDS011;7731;50.720;6.912;2022-07-04T13:33:20;2.60;;;1.25;;
15256;SDS011;7731;50.720;6.912;2022-07-04T13:39:23;2.60;;;0.98;;
15256;SDS011;7731;50.720;6.912;2022-07-04T13:42:16;1.58;;;0.93;;
15256;SDS011;7731;50.720;6.912;2022-07-04T13:51:39;3.72;;;1.20;;
15256;SDS011;7731;50.720;6.912;2022-07-04T13:54:10;5.35;;;1.00;;
15256;SDS011;7731;50.720;6.912;2022-07-04T13:56:41;2.55;;;1.00;;
15256;SDS011;7731;50.720;6.912;2022-07-04T13:59:14;2.05;;;0.93;;
15256;SDS011;7731;50.720;6.912;2022-07-04T14:01:44;1.52;;;1.10;;
15256;SDS011;7731;50.720;6.912;2022-07-04T14:04:15;2.75;;;1.00;;
15256;SDS011;7731;50.720;6.912;2022-07-04T14:06:45;2.03;;;0.85;;
15256;SDS011;7731;50.720;6.912;2022-07-04T14:09:15;2.75;;;0.90;;
15256;SDS011;7731;50.720;6.912;2022-07-04T14:11:46;3.03;;;0.98;;
15256;SDS011;7731;50.720;6.912;2022-07-04T14:14:19;2.10;;;1.20;;
15256;SDS011;7731;50.720;6.912;2022-07-04T14:16:49;2.33;;;1.00;;
15256;SDS011;7731;50.720;6.912;2022-07-04T14:19:19;3.45;;;1.20;;
15256;SDS011;7731;50.720;6.912;2022-07-04T14:21:50;2.50;;;1.10;;
15256;SDS011;7731;50.720;6.912;2022-07-04T14:24:20;2.75;;;1.10;;
15256;SDS011;7731;50.720;6.912;2022-07-04T14:26:52;2.90;;;0.95;;
15256;SDS011;7731;50.720;6.912;2022-07-04T14:29:24;1.88;;;0.90;;
15256;SDS011;7731;50.720;6.912;2022-07-04T14:31:55;4.15;;;1.27;;
15256;SDS011;7731;50.720;6.912;2022-07-04T14:34:25;3.30;;;0.93;;
15256;SDS011;7731;50.720;6.912;2022-07-04T14:36:56;2.42;;;0.95;;
15256;SDS011;7731;50.720;6.912;2022-07-04T14:39:26;2.22;;;0.95;;
15256;SDS011;7731;50.720;6.912;2022-07-04T14:41:56;5.38;;;1.05;;
15256;SDS011;7731;50.720;6.912;2022-07-04T14:44:30;2.65;;;1.00;;
15256;SDS011;7731;50.720;6.912;2022-07-04T14:47:02;1.10;;;0.80;;
15256;SDS011;7731;50.720;6.912;2022-07-04T14:49:37;2.08;;;1.02;;
15256;SDS011;7731;50.720;6.912;2022-07-04T14:52:08;1.40;;;0.85;;
15256;SDS011;7731;50.720;6.912;2022-07-04T14:54:38;1.90;;;0.95;;
15256;SDS011;7731;50.720;6.912;2022-07-04T14:57:09;4.43;;;1.10;;
15256;SDS011;7731;50.720;6.912;2022-07-04T14:59:43;1.75;;;0.90;;
15256;SDS011;7731;50.720;6.912;2022-07-04T15:02:13;1.35;;;1.00;;
15256;SDS011;7731;50.720;6.912;2022-07-04T15:04:44;3.50;;;0.95;;
15256;SDS011;7731;50.720;6.912;2022-07-04T15:07:14;4.43;;;1.23;;
15256;SDS011;7731;50.720;6.912;2022-07-04T15:09:44;2.38;;;1.02;;
15256;SDS011;7731;50.720;6.912;2022-07-04T15:12:15;3.65;;;1.20;;
15256;SDS011;7731;50.720;6.912;2022-07-04T15:14:49;3.05;;;1.15;;
15256;SDS011;7731;50.720;6.912;2022-07-04T15:17:19;2.40;;;1.10;;
15256;SDS011;7731;50.720;6.912;2022-07-04T15:19:50;1.60;;;1.10;;
15256;SDS011;7731;50.720;6.912;2022-07-04T15:22:33;2.78;;;1.00;;
15256;SDS011;7731;50.720;6.912;2022-07-04T15:25:16;2.72;;;1.10;;
15256;SDS011;7731;50.720;6.912;2022-07-04T15:27:46;3.22;;;1.10;;
15256;SDS011;7731;50.720;6.912;2022-07-04T15:30:20;1.92;;;1.30;;
15256;SDS011;7731;50.720;6.912;2022-07-04T15:32:51;4.03;;;2.08;;
15256;SDS011;7731;50.720;6.912;2022-07-04T15:35:21;3.63;;;1.40;;
15256;SDS011;7731;50.720;6.912;2022-07-04T15:37:51;2.88;;;1.48;;
15256;SDS011;7731;50.720;6.912;2022-07-04T15:40:22;5.50;;;1.70;;
15256;SDS011;7731;50.720;6.912;2022-07-04T15:42:52;1.80;;;1.10;;
15256;SDS011;7731;50.720;6.912;2022-07-04T15:45:25;4.93;;;1.20;;
15256;SDS011;7731;50.720;6.912;2022-07-04T15:47:55;2.60;;;1.17;;
15256;SDS011;7731;50.720;6.912;2022-07-04T15:50:26;4.18;;;1.20;;
15256;SDS011;7731;50.720;6.912;2022-07-04T15:52:56;3.53;;;1.30;;